Time;durP1;ratioP1;P1;durP2;ratioP2;P2;SDS_P1;SDS_P2;PMS_P1;PMS_P2;Temp;Humidity;BMP_temperature;BMP_pressure;BME280_temperature;BME280_humidity;BME280_pressure;Samples;Min_cycle;Max_cycle;Signal;HPM_P1;HPM_P2
2022/03/04 00:00:24;;;;;;;40.60;21.23;;;;;;;-0.20;79.67;100866.94;5100863;28;20457;-70
2022/03/04 00:02:50;;;;;;;40.20;20.70;;;;;;;-0.20;79.39;100873.03;5095693;28;20819;-70
2022/03/04 00:05:17;;;;;;;44.33;23.23;;;;;;;-0.27;79.26;100870.72;5095258;28;20479;-70
2022/03/04 00:07:44;;;;;;;46.42;22.10;;;;;;;-0.24;79.82;100881.13;5089675;28;20448;-70
2022/03/04 00:10:10;;;;;;;39.20;22.25;;;;;;;-0.24;79.40;100870.59;5102356;28;20659;-70
2022/03/04 00:12:37;;;;;;;42.30;23.03;;;;;;;-0.14;78.83;100876.34;5101114;28;20240;-70
2022/03/04 00:15:06;;;;;;;39.45;21.77;;;;;;;-0.04;78.53;100875.09;5095702;28;20502;-69
2022/03/04 00:17:33;;;;;;;43.65;22.65;;;;;;;-0.20;78.43;100880.91;5083423;28;20213;-69
2022/03/04 00:20:00;;;;;;;41.93;22.10;;;;;;;-0.06;78.20;100882.19;5084107;28;20232;-70
2022/03/04 00:22:27;;;;;;;42.70;21.17;;;;;;;-0.01;78.01;100882.88;5087519;28;20550;-71
2022/03/04 00:24:53;;;;;;;49.97;25.57;;;;;;;-0.07;77.81;100886.59;5088722;28;20474;-71
2022/03/04 00:27:20;;;;;;;43.53;23.37;;;;;;;-0.27;78.11;100882.06;5084763;28;20482;-70
2022/03/04 00:29:47;;;;;;;42.88;21.92;;;;;;;-0.21;78.31;100889.75;5084749;28;20482;-70
2022/03/04 00:32:15;;;;;;;40.20;22.30;;;;;;;-0.18;78.55;100888.75;5085552;28;20229;-70
2022/03/04 00:34:42;;;;;;;44.67;23.30;;;;;;;-0.26;78.52;100894.31;5101824;28;20469;-71
2022/03/04 00:37:09;;;;;;;47.25;23.20;;;;;;;-0.25;78.66;100911.75;5081770;28;21003;-70
2022/03/04 00:39:36;;;;;;;43.90;23.25;;;;;;;-0.16;78.43;100892.19;5093588;28;20231;-71
2022/03/04 00:42:03;;;;;;;43.47;22.25;;;;;;;-0.18;78.29;100896.63;5100141;28;20253;-72
2022/03/04 00:44:29;;;;;;;41.40;23.37;;;;;;;-0.23;78.41;100903.84;5084704;28;20214;-70
2022/03/04 00:46:56;;;;;;;45.00;25.42;;;;;;;-0.21;78.35;100904.63;5097303;28;20451;-70
2022/03/04 00:49:24;;;;;;;43.00;23.80;;;;;;;-0.31;78.54;100905.88;5103277;28;20288;-70
2022/03/04 00:51:51;;;;;;;44.70;22.42;;;;;;;-0.39;79.05;100904.38;5088533;28;20456;-70
2022/03/04 00:54:18;;;;;;;43.75;23.73;;;;;;;-0.53;79.46;100909.28;5099163;28;20209;-72
2022/03/04 00:56:44;;;;;;;41.13;21.40;;;;;;;-0.47;79.54;100913.44;5085670;28;20197;-72
2022/03/04 00:59:11;;;;;;;44.90;23.90;;;;;;;-0.70;80.16;100920.34;5083313;28;20234;-70
2022/03/04 01:01:37;;;;;;;45.78;24.90;;;;;;;-0.71;80.58;100921.28;5093056;28;20537;-70
2022/03/04 01:04:05;;;;;;;40.47;22.75;;;;;;;-0.68;80.70;100920.31;5085499;28;20205;-70
2022/03/04 01:06:33;;;;;;;45.20;22.93;;;;;;;-0.61;80.29;100911.28;5081017;28;20231;-69
2022/03/04 01:08:59;;;;;;;40.95;22.55;;;;;;;-0.62;80.32;100906.97;5089372;28;20451;-70
2022/03/04 01:11:26;;;;;;;46.50;22.83;;;;;;;-0.61;80.08;100906.91;5082739;28;20206;-71
2022/03/04 01:13:53;;;;;;;41.27;22.40;;;;;;;-0.61;80.18;100901.66;5083886;28;20202;-70
2022/03/04 01:16:20;;;;;;;41.40;24.93;;;;;;;-0.60;80.08;100905.16;5095647;28;20461;-71
2022/03/04 01:18:47;;;;;;;46.63;24.77;;;;;;;-0.49;79.81;100913.50;5096879;28;20471;-71
2022/03/04 01:21:14;;;;;;;42.42;23.20;;;;;;;-0.61;79.92;100908.66;5084352;28;20205;-72
2022/03/04 01:23:42;;;;;;;40.00;22.63;;;;;;;-0.65;79.99;100910.53;5102294;28;20277;-71
2022/03/04 01:26:10;;;;;;;48.55;24.40;;;;;;;-0.75;80.15;100906.50;5102154;28;20307;-71
2022/03/04 01:28:36;;;;;;;42.17;21.67;;;;;;;-0.70;80.35;100914.25;5095614;28;20232;-71
2022/03/04 01:31:03;;;;;;;42.85;22.15;;;;;;;-0.80;80.68;100917.19;5082661;28;20213;-72
2022/03/04 01:33:30;;;;;;;41.20;22.63;;;;;;;-0.81;80.62;100909.38;5082878;28;20240;-71
2022/03/04 01:35:56;;;;;;;42.47;23.05;;;;;;;-0.80;80.87;100908.44;5092121;28;20208;-71
2022/03/04 01:38:23;;;;;;;41.13;20.90;;;;;;;-0.71;80.68;100908.16;5101178;28;20252;-71
2022/03/04 01:40:51;;;;;;;38.90;22.63;;;;;;;-0.63;80.57;100905.25;5082519;28;20209;-71
2022/03/04 01:43:18;;;;;;;40.60;22.38;;;;;;;-0.64;80.19;100904.41;5092615;28;20205;-71
2022/03/04 01:45:45;;;;;;;53.33;23.67;;;;;;;-0.59;80.14;100902.47;5090163;28;20189;-72
2022/03/04 01:48:11;;;;;;;40.65;22.45;;;;;;;-0.57;79.82;100912.94;5101688;28;20432;-72
2022/03/04 01:50:38;;;;;;;46.08;23.08;;;;;;;-0.62;79.80;100906.97;5086455;28;20229;-72
2022/03/04 01:53:05;;;;;;;47.43;24.63;;;;;;;-0.75;80.40;100909.13;5085883;28;20642;-71
2022/03/04 01:55:32;;;;;;;49.15;24.15;;;;;;;-0.76;80.28;100905.66;5093825;28;20498;-71
2022/03/04 01:58:00;;;;;;;47.42;23.50;;;;;;;-0.65;80.32;100909.69;5096571;28;20209;-72
2022/03/04 02:00:27;;;;;;;41.53;22.75;;;;;;;-0.61;79.86;100913.91;5098288;28;20214;-72
2022/03/04 02:02:57;;;;;;;45.90;22.77;;;;;;;-0.55;79.28;100916.34;5094609;28;20223;-73
2022/03/04 02:05:23;;;;;;;49.40;24.30;;;;;;;-0.47;78.88;100916.06;5080700;28;20201;-73
2022/03/04 02:07:50;;;;;;;41.22;23.25;;;;;;;-0.48;78.56;100917.84;5100300;28;20555;-70
2022/03/04 02:10:17;;;;;;;47.08;24.67;;;;;;;-0.44;78.41;100913.34;5086163;28;20658;-71
2022/03/04 02:12:44;;;;;;;44.38;23.60;;;;;;;-0.41;77.87;100911.47;5101883;28;20254;-70
2022/03/04 02:15:12;;;;;;;45.58;24.90;;;;;;;-0.45;77.55;100911.59;5099437;28;20204;-70
2022/03/04 02:17:38;;;;;;;44.67;23.52;;;;;;;-0.52;77.90;100920.63;5101648;28;20273;-70
2022/03/04 02:20:07;;;;;;;43.45;21.65;;;;;;;-0.55;77.83;100920.75;5083094;28;20238;-71
2022/03/04 02:22:35;;;;;;;42.28;23.88;;;;;;;-0.64;78.19;100911.44;5096328;28;20638;-71
2022/03/04 02:25:02;;;;;;;42.72;24.02;;;;;;;-0.60;78.20;100916.50;5086553;28;20194;-71
2022/03/04 02:27:29;;;;;;;47.53;22.30;;;;;;;-0.64;78.13;100911.44;5083019;28;20210;-70
2022/03/04 02:29:55;;;;;;;47.85;23.75;;;;;;;-0.64;78.19;100907.03;5092533;28;20229;-70
2022/03/04 02:32:22;;;;;;;41.28;22.40;;;;;;;-0.72;78.45;100897.69;5081282;28;20213;-70
2022/03/04 02:34:49;;;;;;;42.57;23.00;;;;;;;-0.92;79.43;100900.97;5092790;28;20282;-71
2022/03/04 02:37:15;;;;;;;41.90;21.93;;;;;;;-0.88;79.60;100897.38;5088172;28;20482;-68
2022/03/04 02:39:43;;;;;;;44.33;22.77;;;;;;;-0.82;79.35;100895.34;5084710;28;20506;-69
2022/03/04 02:42:10;;;;;;;46.38;23.67;;;;;;;-0.80;78.91;100901.44;5096192;28;20209;-68
2022/03/04 02:44:37;;;;;;;48.83;24.20;;;;;;;-0.84;78.87;100894.56;5095386;28;20261;-69
2022/03/04 02:47:05;;;;;;;50.90;23.10;;;;;;;-0.96;79.12;100892.34;5081002;28;20448;-70
2022/03/04 02:49:31;;;;;;;40.53;21.58;;;;;;;-0.95;79.15;100899.34;5089988;28;20431;-70
2022/03/04 02:51:58;;;;;;;48.47;22.85;;;;;;;-1.00;78.97;100896.84;5085668;28;20275;-70
2022/03/04 02:54:24;;;;;;;42.72;23.38;;;;;;;-0.88;78.63;100892.97;5081832;28;20205;-70
2022/03/04 02:56:52;;;;;;;43.10;21.65;;;;;;;-0.92;78.23;100900.97;5082945;28;20221;-67
2022/03/04 02:59:19;;;;;;;42.33;22.10;;;;;;;-1.02;79.29;100901.28;5071178;28;20206;-71
2022/03/04 03:01:46;;;;;;;43.35;22.52;;;;;;;-1.22;79.69;100894.06;5092841;28;20260;-69
2022/03/04 03:04:12;;;;;;;39.92;20.92;;;;;;;-1.35;80.08;100890.97;5084945;28;20202;-71
2022/03/04 03:06:39;;;;;;;45.83;24.17;;;;;;;-1.42;80.72;100901.72;5091208;28;20224;-71
2022/03/04 03:09:06;;;;;;;42.90;22.70;;;;;;;-1.38;80.81;100898.94;5095721;28;20193;-71
2022/03/04 03:11:33;;;;;;;41.63;21.83;;;;;;;-1.40;80.73;100902.53;5082158;28;20280;-70
2022/03/04 03:14:01;;;;;;;43.10;23.85;;;;;;;-1.59;81.23;100894.38;5082064;28;20201;-70
2022/03/04 03:16:27;;;;;;;46.75;24.48;;;;;;;-1.66;81.95;100906.81;5081034;28;20240;-69
2022/03/04 03:18:54;;;;;;;45.03;24.05;;;;;;;-1.78;82.80;100902.78;5087375;28;20213;-71
2022/03/04 03:21:20;;;;;;;43.63;24.52;;;;;;;-1.65;82.72;100898.06;5101398;28;20276;-70
2022/03/04 03:23:47;;;;;;;52.40;25.20;;;;;;;-1.69;82.29;100900.81;5097987;28;20687;-71
2022/03/04 03:26:14;;;;;;;53.35;26.23;;;;;;;-1.77;82.64;100901.91;5080800;28;20228;-71
2022/03/04 03:28:41;;;;;;;47.08;24.83;;;;;;;-1.76;82.64;100902.75;5081307;28;20198;-67
2022/03/04 03:31:09;;;;;;;49.85;24.17;;;;;;;-1.82;82.87;100905.53;5083146;28;20201;-69
2022/03/04 03:33:37;;;;;;;44.45;23.15;;;;;;;-1.84;83.15;100909.97;5080309;28;20213;-68
2022/03/04 03:36:04;;;;;;;45.35;23.70;;;;;;;-1.99;83.50;100917.41;5090568;28;20212;-69
2022/03/04 03:38:31;;;;;;;45.67;23.05;;;;;;;-1.90;83.33;100911.88;5098257;28;20228;-71
2022/03/04 03:40:58;;;;;;;50.42;26.15;;;;;;;-1.84;83.33;100915.22;5099957;28;20197;-71
2022/03/04 03:43:24;;;;;;;49.38;25.48;;;;;;;-1.77;82.91;100922.88;5100718;28;20277;-70
2022/03/04 03:45:51;;;;;;;50.97;25.15;;;;;;;-1.79;82.76;100921.19;5095452;28;20210;-72
2022/03/04 03:48:19;;;;;;;49.70;24.05;;;;;;;-1.70;82.53;100920.94;5082577;28;20205;-70
2022/03/04 03:50:46;;;;;;;54.10;26.85;;;;;;;-1.73;82.61;100921.88;5103773;28;20197;-70
2022/03/04 03:53:12;;;;;;;49.83;24.08;;;;;;;-1.59;82.31;100918.84;5102793;28;20235;-70
2022/03/04 03:55:39;;;;;;;51.85;25.80;;;;;;;-1.70;82.24;100920.94;5087491;28;20263;-70
2022/03/04 03:58:06;;;;;;;51.90;25.55;;;;;;;-1.70;82.46;100928.81;5084169;28;20279;-70
2022/03/04 04:00:32;;;;;;;55.17;23.83;;;;;;;-1.78;82.38;100941.25;5085211;28;20218;-70
2022/03/04 04:02:59;;;;;;;47.92;24.10;;;;;;;-1.78;82.30;100936.88;5084143;28;20202;-69
2022/03/04 04:05:28;;;;;;;57.67;26.27;;;;;;;-1.87;82.73;100946.75;5099866;28;20196;-70
2022/03/04 04:07:54;;;;;;;48.20;24.23;;;;;;;-1.81;82.60;100951.84;5083261;28;20206;-70
2022/03/04 04:10:21;;;;;;;53.17;24.38;;;;;;;-1.75;82.48;100946.44;5091367;28;20714;-70
2022/03/04 04:12:48;;;;;;;56.63;25.13;;;;;;;-1.80;82.59;100948.31;5097862;28;20208;-70
2022/03/04 04:15:14;;;;;;;48.17;25.40;;;;;;;-1.78;82.80;100952.59;5092116;28;20639;-70
2022/03/04 04:17:41;;;;;;;52.90;25.10;;;;;;;-1.57;82.86;100955.50;5083279;28;20214;-70
2022/03/04 04:20:09;;;;;;;53.97;24.75;;;;;;;-1.52;82.63;100949.19;5084266;28;20278;-71
2022/03/04 04:22:37;;;;;;;54.80;25.63;;;;;;;-1.41;82.59;100955.88;5098171;28;20742;-71
2022/03/04 04:25:04;;;;;;;53.60;24.52;;;;;;;-1.40;82.59;100955.00;5089463;28;20197;-71
2022/03/04 04:27:31;;;;;;;57.08;26.48;;;;;;;-1.34;82.55;100967.91;5088438;28;20290;-69
2022/03/04 04:29:57;;;;;;;66.13;26.45;;;;;;;-1.27;82.20;100965.97;5091674;28;20197;-69
2022/03/04 04:32:24;;;;;;;55.92;27.25;;;;;;;-1.27;82.36;100964.19;5096537;28;20258;-69
2022/03/04 04:34:51;;;;;;;53.35;26.67;;;;;;;-1.29;82.30;100959.91;5100390;28;20201;-69
2022/03/04 04:37:17;;;;;;;57.10;28.20;;;;;;;-1.38;82.61;100959.28;5082982;28;20294;-70
2022/03/04 04:39:45;;;;;;;53.85;27.05;;;;;;;-1.25;82.38;100964.13;5092960;28;20224;-69
2022/03/04 04:42:12;;;;;;;51.20;23.98;;;;;;;-1.27;82.16;100960.72;5103010;28;20208;-70
2022/03/04 04:44:39;;;;;;;55.72;27.50;;;;;;;-1.36;82.20;100962.69;5088044;28;20226;-70
2022/03/04 04:47:07;;;;;;;56.23;26.23;;;;;;;-1.40;82.42;100957.63;5085310;28;20730;-71
2022/03/04 04:49:36;;;;;;;51.70;25.53;;;;;;;-1.30;82.31;100951.19;5102885;28;20507;-71
2022/03/04 04:52:04;;;;;;;52.42;26.83;;;;;;;-1.43;82.32;100950.69;5103663;28;20471;-69
2022/03/04 04:54:31;;;;;;;49.80;23.38;;;;;;;-1.23;82.17;100949.19;5100638;28;20205;-72
2022/03/04 04:56:59;;;;;;;49.10;23.00;;;;;;;-1.35;82.29;100945.22;5084154;28;20255;-72
2022/03/04 04:59:26;;;;;;;43.30;21.48;;;;;;;-1.35;82.40;100947.84;5094109;28;20505;-72
2022/03/04 05:01:52;;;;;;;54.53;23.95;;;;;;;-1.24;82.35;100943.09;5090904;28;20205;-70
2022/03/04 05:04:19;;;;;;;53.42;22.30;;;;;;;-1.30;82.27;100935.44;5091189;28;20200;-71
2022/03/04 05:06:46;;;;;;;49.63;23.02;;;;;;;-1.23;82.71;100938.72;5102986;28;20208;-71
2022/03/04 05:09:13;;;;;;;43.83;20.10;;;;;;;-1.29;82.62;100934.53;5085148;28;20240;-72
2022/03/04 05:11:40;;;;;;;49.25;23.27;;;;;;;-1.31;82.81;100938.13;5101660;28;20219;-70
2022/03/04 05:14:08;;;;;;;44.72;21.38;;;;;;;-1.12;82.68;100931.38;5101158;28;20197;-70
2022/03/04 05:16:34;;;;;;;44.45;21.75;;;;;;;-1.12;82.75;100931.38;5088201;28;20241;-71
2022/03/04 05:19:01;;;;;;;50.10;21.83;;;;;;;-1.01;82.58;100944.13;5082779;28;20201;-72
2022/03/04 05:21:28;;;;;;;40.90;21.80;;;;;;;-1.04;82.01;100949.47;5090574;28;20194;-70
2022/03/04 05:24:00;;;;;;;46.95;21.27;;;;;;;-1.04;82.40;100949.47;5090437;28;20209;-68
2022/03/04 05:26:30;;;;;;;39.35;20.92;;;;;;;-1.08;82.18;100953.13;5085221;28;20263;-68
2022/03/04 05:28:57;;;;;;;40.90;19.38;;;;;;;-0.99;82.00;100952.81;5088796;28;20223;-67
2022/03/04 05:31:25;;;;;;;39.20;20.60;;;;;;;-1.08;82.10;100953.97;5093503;28;20206;-70
2022/03/04 05:33:52;;;;;;;43.42;21.33;;;;;;;-1.15;82.44;100953.31;5081053;28;20205;-68
2022/03/04 05:36:19;;;;;;;45.70;21.27;;;;;;;-1.09;82.24;100947.03;5078281;28;20206;-69
2022/03/04 05:38:46;;;;;;;33.88;18.92;;;;;;;-0.89;81.90;100956.00;5080166;28;20220;-69
2022/03/04 05:41:13;;;;;;;46.35;21.33;;;;;;;-1.15;81.82;100957.69;5089447;28;20214;-70
2022/03/04 05:43:40;;;;;;;39.97;20.67;;;;;;;-1.10;81.60;100957.56;5082005;28;20193;-70
2022/03/04 05:46:06;;;;;;;46.67;22.95;;;;;;;-1.02;81.86;100963.44;5083087;28;20658;-70
2022/03/04 05:48:35;;;;;;;40.88;21.17;;;;;;;-1.03;81.94;100956.44;5085940;28;20206;-69
2022/03/04 05:51:03;;;;;;;42.57;22.17;;;;;;;-1.11;81.91;100954.09;5081982;28;20198;-70
2022/03/04 05:53:29;;;;;;;40.20;20.52;;;;;;;-1.00;81.97;100957.22;5083321;28;20555;-68
2022/03/04 05:55:56;;;;;;;41.67;20.45;;;;;;;-1.03;81.99;100952.06;5094057;28;20205;-69
2022/03/04 05:58:23;;;;;;;40.38;21.13;;;;;;;-0.95;81.72;100957.91;5086371;28;20240;-67
2022/03/04 06:00:52;;;;;;;51.33;24.00;;;;;;;-1.14;82.10;100962.91;5087106;28;20232;-70
2022/03/04 06:03:19;;;;;;;42.83;21.03;;;;;;;-1.26;82.30;100965.91;5090406;28;20475;-70
2022/03/04 06:05:47;;;;;;;44.92;20.77;;;;;;;-1.27;82.77;100979.91;5092389;28;20444;-70
2022/03/04 06:08:14;;;;;;;47.13;22.88;;;;;;;-1.18;82.64;100977.03;5086461;28;20237;-70
2022/03/04 06:10:41;;;;;;;41.22;21.58;;;;;;;-1.10;82.48;100984.66;5093489;28;20262;-69
2022/03/04 06:13:08;;;;;;;39.97;21.33;;;;;;;-1.00;82.24;100985.22;5089618;28;20205;-69
2022/03/04 06:15:35;;;;;;;47.60;22.52;;;;;;;-1.03;81.98;100985.31;5085684;28;20206;-70
2022/03/04 06:18:01;;;;;;;43.20;21.25;;;;;;;-0.98;81.95;100981.63;5074198;28;20491;-68
2022/03/04 06:20:28;;;;;;;36.28;20.58;;;;;;;-1.05;82.36;100997.63;5081276;28;20273;-68
2022/03/04 06:22:56;;;;;;;41.83;21.83;;;;;;;-1.00;81.99;100990.47;5085477;28;20241;-67
2022/03/04 06:25:23;;;;;;;41.97;19.13;;;;;;;-1.09;82.27;100993.38;5087551;28;20202;-67
2022/03/04 06:27:54;;;;;;;39.97;19.98;;;;;;;-0.96;82.06;100989.47;5081142;28;20202;-65
2022/03/04 06:30:21;;;;;;;42.72;20.65;;;;;;;-1.00;81.91;100990.47;5084303;28;20267;-71
2022/03/04 06:32:48;;;;;;;42.88;21.17;;;;;;;-1.24;82.35;100992.94;5094913;28;20225;-70
2022/03/04 06:35:15;;;;;;;41.08;19.73;;;;;;;-1.32;82.63;101005.44;5087830;28;20229;-71
2022/03/04 06:37:41;;;;;;;46.00;20.50;;;;;;;-1.11;82.54;100996.06;5083982;28;20237;-71
2022/03/04 06:40:11;;;;;;;48.50;20.40;;;;;;;-1.11;82.34;100993.44;5084728;28;20260;-70
2022/03/04 06:42:39;;;;;;;44.38;21.38;;;;;;;-1.05;82.49;100998.50;5081087;28;20197;-71
2022/03/04 06:45:08;;;;;;;49.22;22.17;;;;;;;-0.84;82.12;100996.09;5079342;28;20290;-70
2022/03/04 06:47:35;;;;;;;56.30;22.13;;;;;;;-0.74;81.50;100996.66;5079527;28;20818;-71
2022/03/04 06:50:01;;;;;;;45.80;20.80;;;;;;;-0.78;81.32;100996.75;5081015;28;20527;-70
2022/03/04 06:52:28;;;;;;;41.20;20.05;;;;;;;-0.54;80.83;100993.38;5079545;28;20447;-69
2022/03/04 06:54:55;;;;;;;41.50;20.95;;;;;;;-0.46;80.46;100991.34;5080467;28;20209;-71
2022/03/04 06:57:23;;;;;;;47.73;20.30;;;;;;;-0.48;80.38;100994.03;5080215;28;20245;-71
2022/03/04 06:59:49;;;;;;;43.20;20.55;;;;;;;-0.45;80.46;100990.41;5081379;28;20533;-70
2022/03/04 07:02:16;;;;;;;41.63;19.20;;;;;;;-0.47;80.00;100998.38;5085128;28;20229;-70
2022/03/04 07:04:43;;;;;;;35.95;19.52;;;;;;;-0.48;80.38;100995.81;5080339;28;20464;-70
2022/03/04 07:07:09;;;;;;;48.43;21.07;;;;;;;-0.44;80.13;100993.00;5079008;28;20210;-71
2022/03/04 07:09:36;;;;;;;38.20;19.67;;;;;;;-0.42;79.74;100993.81;5079696;28;20863;-71
2022/03/04 07:12:03;;;;;;;40.63;21.03;;;;;;;-0.33;79.56;101002.28;5079192;28;20436;-71
2022/03/04 07:14:31;;;;;;;41.65;21.02;;;;;;;-0.26;79.09;100993.28;5078187;28;20436;-70
2022/03/04 07:16:57;;;;;;;43.30;20.77;;;;;;;-0.10;78.64;100996.25;5082804;28;20240;-71
2022/03/04 07:19:25;;;;;;;48.13;21.87;;;;;;;-0.32;79.00;101004.84;5079003;28;20504;-71
2022/03/04 07:21:52;;;;;;;47.42;22.30;;;;;;;-0.35;79.02;100996.22;5081409;28;20478;-71
2022/03/04 07:24:18;;;;;;;41.60;21.08;;;;;;;-0.31;79.17;101008.34;5094302;28;20243;-70
2022/03/04 07:26:45;;;;;;;42.90;21.70;;;;;;;-0.42;79.29;101016.59;5097401;28;20308;-71
2022/03/04 07:29:11;;;;;;;38.50;19.35;;;;;;;-0.53;79.37;101006.44;5099787;28;20467;-71
2022/03/04 07:31:39;;;;;;;41.83;21.40;;;;;;;-0.36;78.80;101007.63;5082942;28;20293;-71
2022/03/04 07:34:06;;;;;;;44.80;20.60;;;;;;;-0.11;78.48;101011.13;5097771;28;20272;-71
2022/03/04 07:36:33;;;;;;;45.80;21.03;;;;;;;-0.07;78.05;101004.00;5093608;28;20486;-71
2022/03/04 07:39:00;;;;;;;46.07;21.57;;;;;;;-0.33;78.06;101013.66;5104279;28;20454;-69
2022/03/04 07:41:27;;;;;;;44.80;21.10;;;;;;;-0.14;77.77;101015.66;5084645;28;20752;-70
2022/03/04 07:43:53;;;;;;;36.83;20.30;;;;;;;-0.42;77.95;101025.34;5085703;28;20482;-70
2022/03/04 07:46:22;;;;;;;38.03;20.30;;;;;;;-0.35;78.40;101027.75;5081421;28;20511;-67
2022/03/04 07:48:50;;;;;;;38.47;20.80;;;;;;;-0.09;77.75;101011.94;5080309;28;20447;-72
2022/03/04 07:51:17;;;;;;;44.00;20.40;;;;;;;-0.20;77.80;101025.47;5082505;28;20807;-67
2022/03/04 07:53:44;;;;;;;40.90;20.92;;;;;;;-0.45;78.54;101021.94;5081235;28;20455;-69
2022/03/04 07:56:11;;;;;;;41.27;18.27;;;;;;;-0.33;78.44;101021.56;5081487;28;20220;-70
2022/03/04 07:58:37;;;;;;;40.60;18.50;;;;;;;-0.22;78.17;101029.91;5081539;28;20455;-70
2022/03/04 08:01:05;;;;;;;40.63;20.90;;;;;;;0.02;77.34;101034.38;5081587;28;20510;-70
2022/03/04 08:03:33;;;;;;;39.30;19.43;;;;;;;-0.22;78.26;101035.16;5081250;28;20436;-70
2022/03/04 08:06:01;;;;;;;37.27;19.67;;;;;;;-0.23;78.12;101029.97;5082271;28;20424;-68
2022/03/04 08:08:28;;;;;;;44.80;20.40;;;;;;;-0.12;77.49;101029.59;5081288;28;20539;-69
2022/03/04 08:10:55;;;;;;;37.97;18.27;;;;;;;0.08;76.90;101036.78;5081269;28;20463;-70
2022/03/04 08:13:22;;;;;;;32.53;18.30;;;;;;;0.34;76.61;101035.84;5081904;28;20510;-68
2022/03/04 08:15:48;;;;;;;40.27;19.20;;;;;;;0.34;75.36;101034.06;5082192;28;20444;-70
2022/03/04 08:18:15;;;;;;;36.93;19.10;;;;;;;1.02;73.34;101028.03;5080311;28;20542;-71
2022/03/04 08:20:41;;;;;;;36.30;18.73;;;;;;;1.04;72.31;101032.34;5081541;28;21007;-71
2022/03/04 08:23:10;;;;;;;32.07;17.07;;;;;;;0.61;72.75;101019.94;5080237;28;20444;-69
2022/03/04 08:25:37;;;;;;;31.13;18.40;;;;;;;1.02;71.42;101036.78;5081248;28;20495;-69
2022/03/04 08:28:04;;;;;;;34.73;17.27;;;;;;;0.65;72.27;101029.47;5081481;28;20479;-70
2022/03/04 08:30:30;;;;;;;33.07;17.10;;;;;;;1.03;72.12;101035.03;5081988;28;20531;-71
2022/03/04 08:32:57;;;;;;;30.00;16.87;;;;;;;0.87;71.55;101029.50;5078962;28;20539;-71
2022/03/04 08:35:23;;;;;;;32.30;16.53;;;;;;;1.11;71.10;101033.81;5081789;28;20460;-68
2022/03/04 08:37:52;;;;;;;32.53;17.37;;;;;;;1.58;69.80;101037.19;5079634;28;20475;-69
2022/03/04 08:40:20;;;;;;;34.60;17.00;;;;;;;1.91;67.79;101036.69;5080400;28;20487;-70
2022/03/04 08:42:47;;;;;;;29.83;16.67;;;;;;;2.04;67.19;101044.00;5079221;28;20454;-69
2022/03/04 08:45:14;;;;;;;31.47;17.63;;;;;;;2.94;64.11;101050.56;5077497;28;20559;-66
2022/03/04 08:47:43;;;;;;;28.40;15.27;;;;;;;4.56;59.28;101043.31;5080727;28;20548;-70
2022/03/04 08:50:11;;;;;;;28.13;14.63;;;;;;;5.85;55.46;101032.56;5080680;28;20860;-71
2022/03/04 08:52:38;;;;;;;25.97;15.30;;;;;;;6.58;52.31;101034.38;5080976;28;20428;-72
2022/03/04 08:55:07;;;;;;;24.70;15.70;;;;;;;4.98;54.79;101035.75;5080181;28;20468;-72
2022/03/04 08:57:35;;;;;;;21.60;12.00;;;;;;;5.71;54.07;101049.28;5079536;28;20472;-70
2022/03/04 09:00:02;;;;;;;24.70;14.17;;;;;;;5.75;55.02;101044.66;5080812;28;20436;-72
2022/03/04 09:02:28;;;;;;;25.67;15.37;;;;;;;4.56;55.42;101031.88;5079796;28;20478;-71
2022/03/04 09:04:55;;;;;;;26.17;14.73;;;;;;;6.21;52.06;101042.81;5079512;28;20465;-71
2022/03/04 09:07:22;;;;;;;23.00;14.33;;;;;;;6.27;51.78;101028.28;5077811;28;20531;-71
2022/03/04 09:09:48;;;;;;;27.80;15.20;;;;;;;6.67;51.36;101035.59;5077679;28;21026;-70
2022/03/04 09:12:17;;;;;;;26.53;14.00;;;;;;;6.57;50.23;101040.63;5079652;28;20424;-71
2022/03/04 09:14:45;;;;;;;22.30;13.53;;;;;;;4.88;53.99;101035.44;5080325;28;20444;-68
2022/03/04 09:17:12;;;;;;;20.37;13.37;;;;;;;6.08;52.31;101035.66;5080209;28;20444;-71
2022/03/04 09:19:39;;;;;;;25.50;14.77;;;;;;;6.50;50.06;101031.34;5079325;28;20459;-71
2022/03/04 09:22:05;;;;;;;22.10;12.30;;;;;;;6.83;49.20;101036.31;5080177;28;20460;-71
2022/03/04 09:24:32;;;;;;;23.10;14.00;;;;;;;7.15;48.16;101031.63;5080035;28;20490;-70
2022/03/04 09:26:58;;;;;;;19.30;13.47;;;;;;;7.97;46.31;101046.66;5079496;28;20478;-72
2022/03/04 09:29:25;;;;;;;22.40;13.60;;;;;;;6.33;49.95;101043.81;5082747;28;20523;-71
2022/03/04 09:31:53;;;;;;;26.30;13.60;;;;;;;6.83;49.05;101046.13;5081021;28;20454;-70
2022/03/04 09:34:20;;;;;;;24.53;14.87;;;;;;;7.23;49.19;101036.44;5079988;28;20443;-71
2022/03/04 09:36:46;;;;;;;19.50;13.10;;;;;;;7.49;47.55;101037.38;5076637;28;20536;-71
2022/03/04 09:39:14;;;;;;;24.70;13.03;;;;;;;7.03;48.50;101035.06;5078837;28;20443;-72
2022/03/04 09:41:42;;;;;;;21.90;13.83;;;;;;;6.82;48.83;101044.41;5076552;28;20480;-71
2022/03/04 09:44:09;;;;;;;23.27;14.73;;;;;;;7.10;47.95;101046.13;5079495;28;20504;-69
2022/03/04 09:46:35;;;;;;;23.20;14.87;;;;;;;7.38;46.89;101042.56;5079636;28;20447;-71
2022/03/04 09:49:03;;;;;;;22.50;13.77;;;;;;;6.94;48.74;101039.16;5078416;28;20479;-69
2022/03/04 09:51:30;;;;;;;21.83;13.37;;;;;;;6.84;48.96;101042.50;5080284;28;20424;-71
2022/03/04 09:53:57;;;;;;;21.50;13.17;;;;;;;6.32;50.67;101046.56;5079431;28;20455;-69
2022/03/04 09:56:23;;;;;;;24.50;15.00;;;;;;;6.78;48.79;101046.41;5079039;28;20493;-71
2022/03/04 09:58:50;;;;;;;25.60;15.50;;;;;;;7.91;46.80;101046.09;5079864;28;20907;-71
2022/03/04 10:01:17;;;;;;;21.20;13.27;;;;;;;8.03;45.66;101043.56;5079768;28;20564;-69
2022/03/04 10:03:46;;;;;;;24.37;13.70;;;;;;;8.03;46.19;101043.56;5078750;28;20442;-71
2022/03/04 10:06:14;;;;;;;23.10;14.10;;;;;;;8.25;45.85;101038.47;5079560;28;20478;-71
2022/03/04 10:08:43;;;;;;;20.57;14.20;;;;;;;7.94;45.38;101044.22;5078756;28;20551;-69
2022/03/04 10:11:10;;;;;;;22.60;13.90;;;;;;;7.75;46.11;101042.78;5079137;28;20428;-69
2022/03/04 10:13:44;;;;;;;20.63;12.90;;;;;;;8.12;44.80;101037.59;5079740;28;20486;-71
2022/03/04 10:16:13;;;;;;;23.80;14.50;;;;;;;7.65;46.64;101039.88;5079851;28;20457;-71
2022/03/04 10:18:39;;;;;;;21.30;13.67;;;;;;;7.62;46.89;101042.75;5077950;28;20488;-69
2022/03/04 10:21:06;;;;;;;23.30;13.90;;;;;;;8.08;45.37;101034.31;5079529;28;20471;-70
2022/03/04 10:23:34;;;;;;;26.77;14.87;;;;;;;7.89;45.85;101031.19;5077653;28;20487;-70
2022/03/04 10:26:01;;;;;;;21.60;12.90;;;;;;;7.18;47.51;101049.16;5078950;28;20798;-70
2022/03/04 10:28:29;;;;;;;22.47;14.77;;;;;;;7.99;45.89;101050.06;5079299;28;20455;-71
2022/03/04 10:30:57;;;;;;;22.27;14.13;;;;;;;7.58;46.26;101040.38;5079160;28;20444;-71
2022/03/04 10:33:25;;;;;;;22.00;13.53;;;;;;;7.96;45.40;101042.28;5078022;28;20473;-70
2022/03/04 10:36:07;;;;;;;26.00;14.27;;;;;;;7.59;46.54;101047.44;5078770;28;20584;-69
2022/03/04 10:38:35;;;;;;;23.00;13.70;;;;;;;7.19;47.01;101034.94;5073826;28;20476;-71
2022/03/04 10:41:02;;;;;;;20.80;13.00;;;;;;;7.16;47.83;101043.09;5076063;28;20480;-71
2022/03/04 10:43:32;;;;;;;24.10;14.00;;;;;;;7.72;45.47;101045.63;5078349;28;20526;-70
2022/03/04 10:46:01;;;;;;;19.70;12.73;;;;;;;8.74;43.56;101050.19;5079033;28;20507;-71
2022/03/04 10:48:28;;;;;;;20.23;13.17;;;;;;;8.01;44.97;101043.69;5077571;28;20452;-70
2022/03/04 10:50:56;;;;;;;21.43;13.07;;;;;;;7.73;45.98;101034.03;5077861;28;20459;-71
2022/03/04 10:53:25;;;;;;;19.70;12.67;;;;;;;8.00;45.50;101039.31;5078437;28;20476;-71
2022/03/04 10:55:54;;;;;;;21.33;13.40;;;;;;;6.33;49.13;101041.19;5078967;28;20470;-68
2022/03/04 10:58:24;;;;;;;19.13;12.30;;;;;;;6.57;48.35;101041.47;5089504;28;20464;-69
2022/03/04 11:00:55;;;;;;;21.00;13.10;;;;;;;7.34;47.50;101038.38;5085311;28;20809;-67
2022/03/04 11:03:30;;;;;;;21.53;13.60;;;;;;;7.46;46.20;101034.91;5087889;28;20440;-71
2022/03/04 11:05:59;;;;;;;23.53;13.30;;;;;;;6.84;48.64;101048.69;5087992;28;20506;-71
2022/03/04 11:08:27;;;;;;;23.00;13.80;;;;;;;7.19;47.71;101044.69;5085185;28;20460;-71
2022/03/04 11:10:57;;;;;;;24.00;13.93;;;;;;;7.21;47.89;101037.50;5082508;28;20447;-69